Terminal Aerodrome Forecast
Issued by NWS

Home | Current Version | Previous Version | Text Only | Print | Product List | Glossary On
Versions: 1 2 3 4 5 6 7 8 9 10 11 12 13 14 15 16 17 18 19
000
FTUS45 KBOU 290523
TAFBJC
TAF
KBJC 290523Z 2906/3006 VRB05KT P6SM SCT120 BKN200
     FM290800 19011KT P6SM SCT100 BKN140
     FM291300 VRB05KT P6SM SCT120 BKN200
     FM291800 05008KT P6SM SCT090 BKN200 PROB30 2922/3002 VRB15G25KT
      -TSRA BKN090CB
     FM300200 18008KT P6SM SCT090 BKN120=

USA.gov is the U.S. government's official web portal to all federal, state and local government web resources and services.